createdAt,value
2019-04-25T00:01:16.531Z,22.00
2019-04-25T00:03:43.678Z,22.00
2019-04-25T00:06:12.498Z,21.60
2019-04-25T00:11:07.498Z,21.50
2019-04-25T00:13:33.839Z,22.00
2019-04-25T00:18:28.653Z,21.60
2019-04-25T00:20:56.923Z,21.30
2019-04-25T00:25:57.470Z,21.90
2019-04-25T00:28:23.528Z,22.40
2019-04-25T00:30:49.925Z,21.80
2019-04-25T00:33:16.008Z,21.80
2019-04-25T00:35:43.496Z,21.80
2019-04-25T00:38:10.351Z,21.80
2019-04-25T00:40:36.779Z,21.90
2019-04-25T00:47:56.080Z,21.20
2019-04-25T00:50:22.146Z,21.70
2019-04-25T00:52:48.540Z,21.80
2019-04-25T00:55:26.184Z,21.30
2019-04-25T01:00:18.228Z,21.80
2019-04-25T01:02:47.352Z,21.80
2019-04-25T01:05:13.852Z,21.70
2019-04-25T01:10:11.827Z,21.70
2019-04-25T01:15:08.539Z,21.70
2019-04-25T01:20:01.359Z,21.70
2019-04-25T01:22:27.499Z,21.70
2019-04-25T01:24:54.939Z,21.70
2019-04-25T01:27:23.439Z,21.70
2019-04-25T01:29:50.092Z,22.30
2019-04-25T01:32:18.384Z,21.20
2019-04-25T01:35:01.809Z,21.70
2019-04-25T01:37:30.089Z,21.40
2019-04-25T01:39:58.139Z,21.70
2019-04-25T01:42:38.065Z,21.40
2019-04-25T01:45:06.563Z,21.60
2019-04-25T01:47:33.611Z,21.30
2019-04-25T01:50:00.672Z,21.10
2019-04-25T01:52:27.011Z,21.50
2019-04-25T01:54:54.730Z,21.50
2019-04-25T01:57:21.007Z,21.00
2019-04-25T01:59:47.096Z,21.70
2019-04-25T02:02:15.049Z,22.10
2019-04-25T02:07:08.270Z,21.50
2019-04-25T02:12:20.283Z,22.10
2019-04-25T02:14:46.517Z,21.70
2019-04-25T02:17:14.176Z,21.60
2019-04-25T02:19:41.014Z,21.10
2019-04-25T02:22:07.867Z,21.50
2019-04-25T02:24:34.113Z,21.50
2019-04-25T02:27:00.864Z,22.10
2019-04-25T02:29:27.202Z,21.40
2019-04-25T02:31:57.509Z,21.50
2019-04-25T02:34:21.261Z,21.50
2019-04-25T02:36:47.681Z,21.50
2019-04-25T02:41:44.499Z,21.40
2019-04-25T02:44:10.560Z,21.40
2019-04-25T02:49:39.396Z,21.30
2019-04-25T02:54:50.649Z,21.50
2019-04-25T02:57:17.438Z,21.30
2019-04-25T02:59:45.090Z,21.30
2019-04-25T03:02:15.250Z,21.40
2019-04-25T03:04:41.265Z,21.30
2019-04-25T03:07:11.130Z,21.40
2019-04-25T03:09:35.600Z,21.30
2019-04-25T03:12:01.926Z,21.30
2019-04-25T03:14:28.897Z,21.40
2019-04-25T03:19:24.604Z,21.30
2019-04-25T03:22:01.527Z,21.10
2019-04-25T03:24:29.177Z,21.40
2019-04-25T03:26:55.680Z,21.20
2019-04-25T03:29:21.767Z,21.20
2019-04-25T03:31:48.748Z,21.10
2019-04-25T03:34:20.232Z,21.20
2019-04-25T03:42:00.014Z,21.20
2019-04-25T03:44:26.175Z,21.40
2019-04-25T03:46:53.477Z,21.20
2019-04-25T03:49:20.408Z,21.10
2019-04-25T03:51:46.496Z,21.30
2019-04-25T03:54:14.263Z,21.40
2019-04-25T03:56:49.846Z,20.80
2019-04-25T03:59:09.095Z,21.20
2019-04-25T04:01:35.148Z,21.10
2019-04-25T04:04:01.253Z,21.10
2019-04-25T04:06:27.344Z,21.00
2019-04-25T04:13:46.553Z,20.60
2019-04-25T04:18:44.228Z,21.20
2019-04-25T04:23:54.188Z,21.10
2019-04-25T04:26:23.183Z,21.00
2019-04-25T04:31:16.609Z,21.00
2019-04-25T04:33:43.419Z,21.20
2019-04-25T04:36:09.602Z,20.80
2019-04-25T04:41:03.870Z,21.10
2019-04-25T04:43:30.149Z,21.10
2019-04-25T04:45:56.200Z,21.00
2019-04-25T04:48:23.242Z,21.00
2019-04-25T04:50:50.275Z,21.40
2019-04-25T04:53:17.146Z,21.10
2019-04-25T04:55:44.132Z,21.00
2019-04-25T04:58:11.053Z,21.00
2019-04-25T05:00:38.282Z,21.30
2019-04-25T05:03:06.264Z,20.80
2019-04-25T05:08:19.483Z,20.40
2019-04-25T05:13:12.304Z,21.00
2019-04-25T05:18:36.969Z,21.00
2019-04-25T05:20:54.864Z,21.00
2019-04-25T05:23:21.012Z,20.90
2019-04-25T05:25:47.347Z,21.00
2019-04-25T05:30:53.648Z,21.20
2019-04-25T05:33:21.259Z,21.00
2019-04-25T05:35:48.226Z,20.90
2019-04-25T05:38:15.093Z,20.30
2019-04-25T05:40:48.293Z,21.00
2019-04-25T05:43:15.080Z,21.00
2019-04-25T05:48:08.951Z,21.50
2019-04-25T05:53:01.871Z,21.00
2019-04-25T05:55:27.928Z,21.00
2019-04-25T05:57:54.279Z,21.40
2019-04-25T06:00:20.716Z,20.90
2019-04-25T06:02:47.423Z,21.10
2019-04-25T06:05:15.135Z,21.00
2019-04-25T06:07:41.198Z,21.60
2019-04-25T06:10:10.535Z,21.10
2019-04-25T06:12:41.041Z,20.60
2019-04-25T06:15:08.956Z,21.60
2019-04-25T06:17:46.076Z,21.20
2019-04-25T06:25:32.107Z,21.10
2019-04-25T06:27:59.185Z,21.30
2019-04-25T06:30:27.081Z,21.30
2019-04-25T06:32:54.020Z,21.30
2019-04-25T06:35:20.323Z,21.50
2019-04-25T06:37:47.676Z,21.20
2019-04-25T06:40:16.033Z,21.60
2019-04-25T06:45:25.010Z,21.80
2019-04-25T06:48:07.039Z,21.80
2019-04-25T06:50:34.143Z,22.60
2019-04-25T06:53:01.108Z,22.50
2019-04-25T06:55:27.646Z,22.90
2019-04-25T06:57:55.007Z,23.80
2019-04-25T07:02:50.560Z,26.00
2019-04-25T07:05:30.489Z,26.80
2019-04-25T07:07:47.196Z,27.30
2019-04-25T07:10:14.190Z,28.00
2019-04-25T07:12:40.566Z,28.40
2019-04-25T07:15:10.371Z,28.70
2019-04-25T07:20:07.009Z,29.30
2019-04-25T07:22:34.784Z,30.80
2019-04-25T07:25:01.432Z,30.50
2019-04-25T07:27:29.388Z,30.90
2019-04-25T07:29:57.371Z,31.30
2019-04-25T07:32:30.864Z,31.10
2019-04-25T07:34:56.584Z,32.40
2019-04-25T07:37:24.172Z,32.60
2019-04-25T07:39:50.615Z,32.20
2019-04-25T07:42:16.695Z,33.00
2019-04-25T07:44:52.211Z,32.70
2019-04-25T07:47:11.341Z,32.90
2019-04-25T07:49:37.907Z,33.10
2019-04-25T07:52:05.083Z,33.60
2019-04-25T07:59:24.059Z,29.40
2019-04-25T08:01:50.404Z,27.90
2019-04-25T08:04:16.736Z,26.70
2019-04-25T08:06:44.479Z,25.70
2019-04-25T08:09:12.162Z,25.40
2019-04-25T08:11:39.821Z,25.00
2019-04-25T08:14:08.874Z,24.70
2019-04-25T08:16:37.244Z,24.30
2019-04-25T08:19:06.000Z,23.80
2019-04-25T08:21:34.401Z,24.00
2019-04-25T08:28:57.989Z,23.70
2019-04-25T08:33:50.563Z,23.60
2019-04-25T08:36:16.938Z,23.70
2019-04-25T08:41:11.287Z,23.50
2019-04-25T08:43:39.419Z,23.60
2019-04-25T08:46:07.289Z,22.90
2019-04-25T08:48:35.810Z,23.40
2019-04-25T08:56:15.005Z,22.80
2019-04-25T08:59:05.404Z,23.30
2019-04-25T09:04:14.784Z,23.20
2019-04-25T09:06:40.835Z,23.30
2019-04-25T09:09:07.208Z,23.30
2019-04-25T09:11:36.649Z,23.20
2019-04-25T09:14:03.628Z,23.30
2019-04-25T09:16:29.907Z,22.80
2019-04-25T09:18:56.441Z,23.40
2019-04-25T09:21:23.824Z,23.40
2019-04-25T09:23:50.528Z,23.30
2019-04-25T09:26:16.857Z,24.00
2019-04-25T09:28:45.359Z,23.30
2019-04-25T09:33:37.587Z,23.30
2019-04-25T09:36:04.824Z,23.40
2019-04-25T09:38:33.879Z,23.40
2019-04-25T09:41:00.559Z,23.20
2019-04-25T09:43:26.899Z,23.40
2019-04-25T09:46:06.811Z,24.20
2019-04-25T09:48:36.231Z,23.30
2019-04-25T09:51:05.652Z,23.70
2019-04-25T09:53:34.829Z,24.00
2019-04-25T09:56:04.095Z,23.30
2019-04-25T10:01:13.780Z,23.10
2019-04-25T10:03:43.529Z,23.30
2019-04-25T10:16:07.217Z,22.80
2019-04-25T10:18:35.071Z,23.40
2019-04-25T10:21:04.482Z,23.00
2019-04-25T10:25:58.307Z,23.30
2019-04-25T10:28:25.804Z,23.40
2019-04-25T10:30:53.159Z,24.00
2019-04-25T10:33:24.287Z,23.90
2019-04-25T10:35:58.452Z,23.70
2019-04-25T10:40:48.776Z,23.70
2019-04-25T10:43:14.829Z,23.40
2019-04-25T10:48:09.832Z,23.20
2019-04-25T10:50:35.983Z,23.50
2019-04-25T10:53:03.922Z,23.20
2019-04-25T10:55:30.336Z,24.20
2019-04-25T10:57:57.801Z,23.40
2019-04-25T11:00:27.779Z,23.50
2019-04-25T11:05:25.488Z,24.00
2019-04-25T11:07:54.084Z,23.60
2019-04-25T11:12:49.896Z,24.00
2019-04-25T11:15:16.236Z,23.10
2019-04-25T11:20:26.612Z,23.60
2019-04-25T11:22:53.512Z,23.60
2019-04-25T11:25:20.616Z,23.80
2019-04-25T11:30:17.043Z,23.70
2019-04-25T11:32:44.791Z,23.80
2019-04-25T11:35:11.184Z,24.30
2019-04-25T11:40:10.029Z,23.70
2019-04-25T11:42:36.081Z,23.70
2019-04-25T11:45:06.053Z,23.10
2019-04-25T11:47:34.625Z,23.60
2019-04-25T11:52:30.133Z,24.30
2019-04-25T11:54:55.759Z,23.70
2019-04-25T11:59:50.602Z,23.30
2019-04-25T12:02:19.204Z,24.30
2019-04-25T12:04:46.856Z,23.40
2019-04-25T12:07:14.438Z,23.80
2019-04-25T12:09:40.511Z,23.70
2019-04-25T12:12:06.565Z,24.20
2019-04-25T12:14:34.168Z,23.80
2019-04-25T12:17:01.008Z,23.70
2019-04-25T12:19:35.791Z,24.00
2019-04-25T12:21:56.762Z,24.00
2019-04-25T12:24:23.867Z,23.80
2019-04-25T12:26:51.032Z,24.50
2019-04-25T12:31:45.530Z,23.60
2019-04-25T12:34:11.513Z,23.80
2019-04-25T12:36:37.560Z,23.90
2019-04-25T12:39:07.081Z,23.90
2019-04-25T12:44:08.892Z,24.00
2019-04-25T12:46:37.692Z,23.90
2019-04-25T12:49:03.744Z,24.00
2019-04-25T12:51:30.073Z,24.40
2019-04-25T12:53:56.224Z,24.00
2019-04-25T12:56:24.571Z,24.00
2019-04-25T12:58:51.463Z,23.40
2019-04-25T13:01:18.667Z,24.00
2019-04-25T13:03:44.747Z,24.10
2019-04-25T13:08:37.252Z,24.00
2019-04-25T13:11:08.659Z,24.50
2019-04-25T13:13:33.981Z,24.10
2019-04-25T13:16:00.420Z,24.10
2019-04-25T13:18:26.499Z,24.10
2019-04-25T13:20:55.009Z,23.60
2019-04-25T13:23:21.444Z,24.10
2019-04-25T13:25:47.637Z,24.20
2019-04-25T13:31:03.966Z,24.20
2019-04-25T13:33:29.220Z,24.30
2019-04-25T13:36:04.033Z,24.70
2019-04-25T13:38:31.259Z,24.30
2019-04-25T13:40:58.249Z,24.30
2019-04-25T13:43:26.211Z,23.70
2019-04-25T13:45:52.543Z,23.80
2019-04-25T13:50:45.032Z,24.30
2019-04-25T13:53:13.195Z,24.30
2019-04-25T13:55:39.803Z,24.30
2019-04-25T13:58:06.646Z,24.30
2019-04-25T14:03:01.870Z,24.90
2019-04-25T14:05:28.277Z,25.10
2019-04-25T14:07:55.502Z,24.30
2019-04-25T14:10:23.526Z,23.90
2019-04-25T14:12:50.536Z,24.40
2019-04-25T14:15:19.872Z,24.30
2019-04-25T14:17:59.760Z,24.70
2019-04-25T14:20:36.375Z,24.60
2019-04-25T14:23:05.565Z,24.40
2019-04-25T14:25:31.916Z,24.30
2019-04-25T14:30:26.623Z,24.40
2019-04-25T14:32:53.632Z,24.50
2019-04-25T14:35:21.591Z,24.50
2019-04-25T14:37:48.935Z,24.10
2019-04-25T14:40:15.026Z,25.20
2019-04-25T14:47:36.004Z,24.60
2019-04-25T14:50:04.683Z,24.50
2019-04-25T14:52:31.995Z,24.50
2019-04-25T14:55:17.372Z,24.80
2019-04-25T14:57:43.420Z,24.60
2019-04-25T15:00:12.956Z,24.50
2019-04-25T15:02:40.773Z,24.50
2019-04-25T15:05:07.288Z,24.50
2019-04-25T15:09:59.804Z,24.30
2019-04-25T15:12:26.867Z,24.70
2019-04-25T15:14:53.763Z,24.70
2019-04-25T15:19:46.388Z,25.10
2019-04-25T15:22:12.728Z,24.50
2019-04-25T15:24:38.779Z,25.20
2019-04-25T15:27:05.179Z,25.30
2019-04-25T15:29:31.836Z,24.80
2019-04-25T15:34:26.824Z,24.60
2019-04-25T15:36:58.791Z,24.80
2019-04-25T15:45:04.686Z,24.80
2019-04-25T15:57:19.569Z,24.10
2019-04-25T15:59:45.639Z,24.80
2019-04-25T16:04:40.596Z,24.80
2019-04-25T16:07:08.717Z,24.10
2019-04-25T16:12:01.243Z,24.80
2019-04-25T16:16:55.412Z,24.80
2019-04-25T16:19:21.803Z,25.30
2019-04-25T16:24:14.597Z,25.50
2019-04-25T16:29:09.784Z,24.90
2019-04-25T16:31:36.691Z,24.80
2019-04-25T16:34:03.544Z,24.60
2019-04-25T16:36:30.606Z,24.90
2019-04-25T16:38:57.593Z,24.80
2019-04-25T16:41:24.664Z,24.10
2019-04-25T16:43:52.693Z,24.70
2019-04-25T16:48:46.668Z,24.90
2019-04-25T16:53:40.278Z,24.70
2019-04-25T16:58:33.876Z,22.00
2019-04-25T17:01:04.860Z,24.70
2019-04-25T17:03:33.007Z,24.80
2019-04-25T17:06:00.128Z,24.70
2019-04-25T17:08:26.420Z,24.80
2019-04-25T17:10:52.472Z,24.90
2019-04-25T17:18:22.387Z,24.70
2019-04-25T17:23:18.097Z,25.10
2019-04-25T17:25:44.152Z,24.20
2019-04-25T17:28:11.292Z,24.60
2019-04-25T17:30:39.452Z,24.90
2019-04-25T17:33:16.320Z,24.70
2019-04-25T17:35:44.264Z,24.50
2019-04-25T17:40:41.864Z,24.50
2019-04-25T17:43:11.227Z,24.40
2019-04-25T17:48:04.872Z,24.00
2019-04-25T17:50:31.910Z,24.40
2019-04-25T17:52:59.471Z,24.30
2019-04-25T17:55:25.639Z,24.50
2019-04-25T17:57:52.587Z,24.40
2019-04-25T18:00:27.661Z,23.50
2019-04-25T18:02:59.085Z,24.80
2019-04-25T18:05:21.996Z,24.30
2019-04-25T18:10:14.703Z,24.30
2019-04-25T18:12:42.162Z,24.30
2019-04-25T18:15:12.131Z,24.30
2019-04-25T18:20:11.628Z,23.70
2019-04-25T18:22:48.560Z,24.60
2019-04-25T18:25:19.365Z,24.00
2019-04-25T18:27:47.324Z,24.30
2019-04-25T18:35:26.885Z,24.20
2019-04-25T18:37:57.380Z,24.20
2019-04-25T18:40:25.332Z,23.90
2019-04-25T18:43:02.243Z,24.70
2019-04-25T18:45:30.248Z,24.10
2019-04-25T18:47:56.299Z,24.20
2019-04-25T18:50:24.528Z,23.80
2019-04-25T18:55:43.696Z,24.10
2019-04-25T18:58:28.472Z,24.10
2019-04-25T19:00:57.429Z,23.50
2019-04-25T19:03:38.289Z,24.10
2019-04-25T19:06:08.146Z,24.00
2019-04-25T19:08:34.205Z,24.40
2019-04-25T19:11:00.315Z,23.90
2019-04-25T19:13:27.643Z,23.90
2019-04-25T19:15:53.976Z,23.80
2019-04-25T19:18:20.319Z,23.70
2019-04-25T19:23:15.100Z,23.80
2019-04-25T19:25:41.616Z,23.80
2019-04-25T19:28:08.007Z,23.80
2019-04-25T19:30:34.411Z,23.90
2019-04-25T19:33:00.460Z,23.80
2019-04-25T19:35:27.599Z,23.80
2019-04-25T19:37:55.755Z,23.80
2019-04-25T19:43:19.344Z,23.70
2019-04-25T19:48:13.845Z,23.60
2019-04-25T19:53:07.848Z,23.70
2019-04-25T19:58:00.903Z,23.60
2019-04-25T20:00:27.051Z,23.60
2019-04-25T20:03:00.940Z,23.60
2019-04-25T20:05:31.960Z,23.50
2019-04-25T20:10:37.267Z,23.60
2019-04-25T20:13:03.576Z,23.50
2019-04-25T20:15:29.765Z,23.50
2019-04-25T20:17:55.807Z,23.50
2019-04-25T20:20:21.964Z,24.00
2019-04-25T20:25:14.908Z,23.40
2019-04-25T20:30:10.021Z,23.30
2019-04-25T20:32:36.352Z,23.60
2019-04-25T20:37:30.057Z,23.40
2019-04-25T20:39:56.144Z,23.30
2019-04-25T20:47:16.276Z,23.30
2019-04-25T20:49:42.712Z,23.30
2019-04-25T20:52:09.044Z,22.70
2019-04-25T20:54:35.102Z,23.20
2019-04-25T20:57:01.179Z,23.20
2019-04-25T20:59:27.336Z,23.20
2019-04-25T21:01:53.639Z,23.80
2019-04-25T21:04:38.102Z,23.00
2019-04-25T21:07:04.442Z,22.60
2019-04-25T21:09:30.528Z,23.10
2019-04-25T21:11:56.689Z,22.70
2019-04-25T21:14:35.109Z,23.20
2019-04-25T21:17:03.115Z,23.20
2019-04-25T21:19:31.441Z,23.10
2019-04-25T21:21:57.493Z,23.20
2019-04-25T21:29:19.008Z,23.90
2019-04-25T21:34:11.902Z,23.20
2019-04-25T21:36:39.233Z,23.20
2019-04-25T21:41:38.270Z,23.10
2019-04-25T21:44:06.919Z,22.90
2019-04-25T21:49:03.081Z,22.90
2019-04-25T21:51:33.351Z,23.00
2019-04-25T21:56:30.757Z,23.00
2019-04-25T22:01:29.289Z,22.90
2019-04-25T22:03:56.936Z,23.50
2019-04-25T22:06:23.544Z,23.00
2019-04-25T22:08:49.879Z,23.00
2019-04-25T22:11:16.041Z,23.00
2019-04-25T22:13:42.905Z,23.00
2019-04-25T22:16:09.689Z,23.00
2019-04-25T22:18:36.959Z,23.10
2019-04-25T22:21:05.112Z,23.30
2019-04-25T22:23:32.656Z,22.50
2019-04-25T22:25:59.141Z,23.00
2019-04-25T22:28:27.491Z,23.00
2019-04-25T22:30:57.705Z,23.10
2019-04-25T22:38:34.924Z,22.80
2019-04-25T22:43:30.681Z,22.60
2019-04-25T22:45:57.496Z,23.00
2019-04-25T22:48:26.560Z,23.20
2019-04-25T22:50:53.475Z,22.90
2019-04-25T22:53:23.212Z,23.50
2019-04-25T22:58:14.263Z,23.20
2019-04-25T23:00:40.316Z,23.40
2019-04-25T23:03:09.484Z,22.90
2019-04-25T23:05:37.436Z,22.90
2019-04-25T23:08:04.328Z,23.00
2019-04-25T23:10:30.388Z,22.90
2019-04-25T23:12:56.478Z,22.80
2019-04-25T23:15:22.771Z,22.80
2019-04-25T23:17:49.446Z,22.70
2019-04-25T23:20:16.800Z,22.80
2019-04-25T23:22:42.915Z,23.10
2019-04-25T23:25:11.988Z,22.80
2019-04-25T23:30:18.692Z,22.70
2019-04-25T23:32:44.748Z,23.10
2019-04-25T23:35:24.364Z,22.80
2019-04-25T23:40:06.639Z,22.70
2019-04-25T23:42:34.155Z,22.30
2019-04-25T23:45:01.107Z,22.70
2019-04-25T23:47:27.191Z,22.70
2019-04-25T23:49:53.975Z,22.80
2019-04-25T23:52:20.761Z,22.80
2019-04-25T23:54:46.848Z,22.70
2019-04-25T23:57:14.136Z,22.80
2019-04-25T23:59:40.290Z,22.70
